Wayne City, IL (62895)

5:26 AM CDT on September 03, 2015 (GMT -0500)
Garrison, il | | Change Station
CLOSE
Current Station
Personal Weather Station
Location: Illinois, IL
Elevation: 427 ft
Nearby Weather Stations

Elev 427 ft 38.25 °N, 88.52 °W | Updated 4 minutes ago

Fog
Fog
68.7 °F
Feels Like 68.7 °F
N
0.0
Wind Variable Wind from SSE

Today
High -- | Low -- °F
--% Chance of Precip.
Yesterday
High -- | Low -- °F
Precip. -- in
6:25 AM 7:21 PM
Waning Gibbous, 71% visible
Pressure 30.01 in
Visibility 0.5 miles
Clouds Mostly Cloudy 200 ft
Dew Point 68 °F
Humidity 99%
Rainfall 0.00 in
Snow Depth Not available.
UV 0 out of 12
Pollen 10.50 out of 12
Air Quality Not available.
Flu Activity Not available.
METAR KFWC 031015Z AUTO 00000KT 1/2SM FG BKN002 20/20 A3001 RMK AO1 T01960195
Pressure 30.01 in
Visibility 0.5 miles
Clouds Mostly Cloudy 200 ft
Dew Point 68 °F
Humidity 99%
Rainfall 0.00 in
Snow Depth Not available.
UV 0 out of 12
Pollen 10.50 out of 12
Air Quality Not available.
Flu Activity Not available.
METAR KFWC 031015Z AUTO 00000KT 1/2SM FG BKN002 20/20 A3001 RMK AO1 T01960195

10-Day Weather Forecast

×

Almanac

Astronomy

Sep. 03, 2015 Rise Set
Actual Time
Civil Twilight
Nautical Twilight
Astronomical Twilight
Moon
Length of Visible Light
Length of Day
Tomorrow will be .
, % of the Moon is Illuminated

Today's Extremes

State Highs State Lows

Community

WunderPhotos

Upload Photos

1,851,929 photos uploaded!

WunderBlogs® & News

Nearby

Air Quality

  Air Quality AQ Index Pollutant
Not available.

Snow Depth

Station Depth Elevation

Earthquake Activity

City Distance Mag. Time & Date
Minimum magnitude displayed is 2.5.

Coastal Water Temperatures

Place Temperature

Stations

Nearby Weather Stations

Station Location Temp. Windchill Dew Point Humidity Wind Precip. Elev Updated Type